sensor_id;sensor_type;location;lat;lon;timestamp;temperature;humidity
23411;DHT22;11878;51.774;7.220;2023-04-03T00:01:34;2.40;99.90
23411;DHT22;11878;51.774;7.220;2023-04-03T00:04:36;2.40;99.90
23411;DHT22;11878;51.774;7.220;2023-04-03T00:07:38;2.50;99.90
23411;DHT22;11878;51.774;7.220;2023-04-03T00:10:40;2.60;99.90
23411;DHT22;11878;51.774;7.220;2023-04-03T00:13:42;2.60;99.90
23411;DHT22;11878;51.774;7.220;2023-04-03T00:16:44;2.60;99.90
23411;DHT22;11878;51.774;7.220;2023-04-03T00:19:45;2.60;99.90
23411;DHT22;11878;51.774;7.220;2023-04-03T00:22:47;2.60;99.90
23411;DHT22;11878;51.774;7.220;2023-04-03T00:25:51;2.70;99.90
23411;DHT22;11878;51.774;7.220;2023-04-03T00:28:53;2.80;99.90
23411;DHT22;11878;51.774;7.220;2023-04-03T00:31:55;2.70;99.90
23411;DHT22;11878;51.774;7.220;2023-04-03T00:34:57;2.80;99.90
23411;DHT22;11878;51.774;7.220;2023-04-03T00:37:58;2.70;99.90
23411;DHT22;11878;51.774;7.220;2023-04-03T00:48:00;2.90;99.90
23411;DHT22;11878;51.774;7.220;2023-04-03T00:51:05;2.90;99.90
23411;DHT22;11878;51.774;7.220;2023-04-03T00:54:08;2.90;99.90
23411;DHT22;11878;51.774;7.220;2023-04-03T00:57:10;2.90;99.90
23411;DHT22;11878;51.774;7.220;2023-04-03T01:00:16;2.90;99.90
23411;DHT22;11878;51.774;7.220;2023-04-03T01:03:18;2.90;99.90
23411;DHT22;11878;51.774;7.220;2023-04-03T01:06:25;3.00;99.90
23411;DHT22;11878;51.774;7.220;2023-04-03T01:09:28;3.00;99.90
23411;DHT22;11878;51.774;7.220;2023-04-03T01:12:43;3.00;99.90
23411;DHT22;11878;51.774;7.220;2023-04-03T01:15:48;3.00;99.90
23411;DHT22;11878;51.774;7.220;2023-04-03T01:18:50;3.00;99.90
23411;DHT22;11878;51.774;7.220;2023-04-03T01:22:15;2.90;99.90
23411;DHT22;11878;51.774;7.220;2023-04-03T01:25:20;2.80;99.90
23411;DHT22;11878;51.774;7.220;2023-04-03T01:28:34;2.90;99.90
23411;DHT22;11878;51.774;7.220;2023-04-03T01:31:53;2.90;99.90
23411;DHT22;11878;51.774;7.220;2023-04-03T01:34:55;3.00;99.90
23411;DHT22;11878;51.774;7.220;2023-04-03T01:37:57;3.00;99.90
23411;DHT22;11878;51.774;7.220;2023-04-03T01:40:59;3.00;99.90
23411;DHT22;11878;51.774;7.220;2023-04-03T01:44:02;3.00;99.90
23411;DHT22;11878;51.774;7.220;2023-04-03T01:47:06;3.00;99.90
23411;DHT22;11878;51.774;7.220;2023-04-03T01:50:09;3.00;99.90
23411;DHT22;11878;51.774;7.220;2023-04-03T01:53:12;2.90;99.90
23411;DHT22;11878;51.774;7.220;2023-04-03T01:56:14;2.70;99.90
23411;DHT22;11878;51.774;7.220;2023-04-03T01:59:16;2.60;99.90
23411;DHT22;11878;51.774;7.220;2023-04-03T02:05:29;2.50;99.90
23411;DHT22;11878;51.774;7.220;2023-04-03T02:08:36;2.60;99.90
23411;DHT22;11878;51.774;7.220;2023-04-03T02:14:45;2.60;99.90
23411;DHT22;11878;51.774;7.220;2023-04-03T02:17:47;2.50;99.90
23411;DHT22;11878;51.774;7.220;2023-04-03T02:20:49;2.60;99.90
23411;DHT22;11878;51.774;7.220;2023-04-03T02:23:51;2.60;99.90
23411;DHT22;11878;51.774;7.220;2023-04-03T02:26:53;2.50;99.90
23411;DHT22;11878;51.774;7.220;2023-04-03T02:29:55;2.60;99.90
23411;DHT22;11878;51.774;7.220;2023-04-03T02:32:57;2.60;99.90
23411;DHT22;11878;51.774;7.220;2023-04-03T02:36:00;2.50;99.90
23411;DHT22;11878;51.774;7.220;2023-04-03T02:39:02;2.50;99.90
23411;DHT22;11878;51.774;7.220;2023-04-03T02:42:04;2.50;99.90
23411;DHT22;11878;51.774;7.220;2023-04-03T02:45:08;2.40;99.90
23411;DHT22;11878;51.774;7.220;2023-04-03T02:48:10;2.40;99.90
23411;DHT22;11878;51.774;7.220;2023-04-03T02:51:12;2.40;99.90
23411;DHT22;11878;51.774;7.220;2023-04-03T02:54:14;2.30;99.90
23411;DHT22;11878;51.774;7.220;2023-04-03T02:57:20;2.30;99.90
23411;DHT22;11878;51.774;7.220;2023-04-03T03:00:22;2.40;99.90
23411;DHT22;11878;51.774;7.220;2023-04-03T03:03:24;2.30;99.90
23411;DHT22;11878;51.774;7.220;2023-04-03T03:06:26;2.40;99.90
23411;DHT22;11878;51.774;7.220;2023-04-03T03:09:29;2.30;99.90
23411;DHT22;11878;51.774;7.220;2023-04-03T03:12:31;2.30;99.90
23411;DHT22;11878;51.774;7.220;2023-04-03T03:15:34;2.30;99.90
23411;DHT22;11878;51.774;7.220;2023-04-03T03:18:36;2.20;99.90
23411;DHT22;11878;51.774;7.220;2023-04-03T03:21:38;2.20;99.90
23411;DHT22;11878;51.774;7.220;2023-04-03T03:24:40;2.20;99.90
23411;DHT22;11878;51.774;7.220;2023-04-03T03:27:43;2.20;99.90
23411;DHT22;11878;51.774;7.220;2023-04-03T03:30:45;2.10;99.90
23411;DHT22;11878;51.774;7.220;2023-04-03T03:33:48;2.10;99.90
23411;DHT22;11878;51.774;7.220;2023-04-03T03:36:50;2.10;99.90
23411;DHT22;11878;51.774;7.220;2023-04-03T03:39:52;2.00;99.90
23411;DHT22;11878;51.774;7.220;2023-04-03T03:42:54;2.10;99.90
23411;DHT22;11878;51.774;7.220;2023-04-03T03:45:56;1.70;99.90
23411;DHT22;11878;51.774;7.220;2023-04-03T03:48:59;2.10;99.90
23411;DHT22;11878;51.774;7.220;2023-04-03T03:52:01;2.00;99.90
23411;DHT22;11878;51.774;7.220;2023-04-03T03:55:03;2.00;99.90
23411;DHT22;11878;51.774;7.220;2023-04-03T03:58:06;2.00;99.90
23411;DHT22;11878;51.774;7.220;2023-04-03T04:04:40;2.00;99.90
23411;DHT22;11878;51.774;7.220;2023-04-03T04:07:43;1.80;99.90
23411;DHT22;11878;51.774;7.220;2023-04-03T04:10:45;1.80;99.90
23411;DHT22;11878;51.774;7.220;2023-04-03T04:13:50;1.90;99.90
23411;DHT22;11878;51.774;7.220;2023-04-03T04:16:54;1.70;99.90
23411;DHT22;11878;51.774;7.220;2023-04-03T04:19:59;1.80;99.90
23411;DHT22;11878;51.774;7.220;2023-04-03T04:23:02;1.90;99.90
23411;DHT22;11878;51.774;7.220;2023-04-03T04:29:43;1.70;99.90
23411;DHT22;11878;51.774;7.220;2023-04-03T04:32:45;1.60;99.90
23411;DHT22;11878;51.774;7.220;2023-04-03T04:39:26;1.60;99.90
23411;DHT22;11878;51.774;7.220;2023-04-03T04:42:30;1.60;99.90
23411;DHT22;11878;51.774;7.220;2023-04-03T04:52:23;1.40;99.90
23411;DHT22;11878;51.774;7.220;2023-04-03T04:58:56;1.40;99.90
23411;DHT22;11878;51.774;7.220;2023-04-03T05:02:00;1.40;99.90
23411;DHT22;11878;51.774;7.220;2023-04-03T05:05:02;1.40;99.90
23411;DHT22;11878;51.774;7.220;2023-04-03T05:08:06;1.30;99.90
23411;DHT22;11878;51.774;7.220;2023-04-03T05:11:12;1.40;99.90
23411;DHT22;11878;51.774;7.220;2023-04-03T05:14:15;1.40;99.90
23411;DHT22;11878;51.774;7.220;2023-04-03T05:20:27;1.40;99.90
23411;DHT22;11878;51.774;7.220;2023-04-03T05:23:29;1.40;99.90
23411;DHT22;11878;51.774;7.220;2023-04-03T05:30:22;1.40;99.90
23411;DHT22;11878;51.774;7.220;2023-04-03T05:39:59;1.30;99.90
23411;DHT22;11878;51.774;7.220;2023-04-03T05:43:01;1.50;99.90
23411;DHT22;11878;51.774;7.220;2023-04-03T05:49:39;1.50;99.90
23411;DHT22;11878;51.774;7.220;2023-04-03T05:52:47;1.50;99.90
23411;DHT22;11878;51.774;7.220;2023-04-03T05:55:50;1.60;99.90
23411;DHT22;11878;51.774;7.220;2023-04-03T06:02:30;1.80;99.90
23411;DHT22;11878;51.774;7.220;2023-04-03T06:51:22;2.60;99.90
23411;DHT22;11878;51.774;7.220;2023-04-03T06:54:24;2.60;99.90
23411;DHT22;11878;51.774;7.220;2023-04-03T06:57:25;2.70;99.90
23411;DHT22;11878;51.774;7.220;2023-04-03T07:00:28;2.80;99.90
23411;DHT22;11878;51.774;7.220;2023-04-03T07:07:00;2.90;99.90
23411;DHT22;11878;51.774;7.220;2023-04-03T07:17:18;3.00;99.90
23411;DHT22;11878;51.774;7.220;2023-04-03T07:20:19;3.20;99.90
23411;DHT22;11878;51.774;7.220;2023-04-03T07:23:22;3.20;99.90
23411;DHT22;11878;51.774;7.220;2023-04-03T07:29:54;3.30;99.90
23411;DHT22;11878;51.774;7.220;2023-04-03T07:32:57;3.40;99.90
23411;DHT22;11878;51.774;7.220;2023-04-03T07:39:23;3.60;99.90
23411;DHT22;11878;51.774;7.220;2023-04-03T07:42:25;3.70;99.90
23411;DHT22;11878;51.774;7.220;2023-04-03T07:45:29;3.90;99.90
23411;DHT22;11878;51.774;7.220;2023-04-03T07:48:31;3.90;99.90
23411;DHT22;11878;51.774;7.220;2023-04-03T07:58:42;4.10;99.90
23411;DHT22;11878;51.774;7.220;2023-04-03T08:01:44;4.30;99.90
23411;DHT22;11878;51.774;7.220;2023-04-03T08:18:49;4.60;99.90
23411;DHT22;11878;51.774;7.220;2023-04-03T08:21:52;4.70;99.90
23411;DHT22;11878;51.774;7.220;2023-04-03T08:24:53;4.80;99.90
23411;DHT22;11878;51.774;7.220;2023-04-03T08:45:55;5.60;99.90
23411;DHT22;11878;51.774;7.220;2023-04-03T09:03:34;6.00;99.90
23411;DHT22;11878;51.774;7.220;2023-04-03T09:10:02;6.30;99.90
23411;DHT22;11878;51.774;7.220;2023-04-03T09:34:45;7.10;96.80
23411;DHT22;11878;51.774;7.220;2023-04-03T09:37:50;7.40;96.10
23411;DHT22;11878;51.774;7.220;2023-04-03T09:41:21;7.90;99.10
23411;DHT22;11878;51.774;7.220;2023-04-03T09:44:37;7.80;91.10
23411;DHT22;11878;51.774;7.220;2023-04-03T09:47:39;7.80;93.20
23411;DHT22;11878;51.774;7.220;2023-04-03T09:57:41;8.60;94.50
23411;DHT22;11878;51.774;7.220;2023-04-03T10:00:43;8.60;92.30
23411;DHT22;11878;51.774;7.220;2023-04-03T10:07:30;8.70;92.10
23411;DHT22;11878;51.774;7.220;2023-04-03T10:14:17;9.30;78.70
23411;DHT22;11878;51.774;7.220;2023-04-03T10:31:25;9.10;79.00
23411;DHT22;11878;51.774;7.220;2023-04-03T10:34:37;10.30;83.20
23411;DHT22;11878;51.774;7.220;2023-04-03T10:38:01;10.30;76.30
23411;DHT22;11878;51.774;7.220;2023-04-03T10:48:07;10.10;72.50
23411;DHT22;11878;51.774;7.220;2023-04-03T10:51:54;10.00;71.60
23411;DHT22;11878;51.774;7.220;2023-04-03T10:58:39;9.20;74.30
23411;DHT22;11878;51.774;7.220;2023-04-03T11:01:45;9.10;69.70
23411;DHT22;11878;51.774;7.220;2023-04-03T11:04:55;10.20;73.90
23411;DHT22;11878;51.774;7.220;2023-04-03T11:11:40;7.60;68.90
23411;DHT22;11878;51.774;7.220;2023-04-03T11:14:46;11.00;77.40
23411;DHT22;11878;51.774;7.220;2023-04-03T11:18:18;11.00;79.50
23411;DHT22;11878;51.774;7.220;2023-04-03T11:21:39;11.80;71.80
23411;DHT22;11878;51.774;7.220;2023-04-03T11:25:38;10.20;69.70
23411;DHT22;11878;51.774;7.220;2023-04-03T11:28:15;10.20;68.50
23411;DHT22;11878;51.774;7.220;2023-04-03T11:35:08;10.10;66.50
23411;DHT22;11878;51.774;7.220;2023-04-03T11:38:19;9.20;71.50
23411;DHT22;11878;51.774;7.220;2023-04-03T11:41:33;11.40;77.20
23411;DHT22;11878;51.774;7.220;2023-04-03T11:44:39;10.90;69.90
23411;DHT22;11878;51.774;7.220;2023-04-03T12:08:28;9.60;70.90
23411;DHT22;11878;51.774;7.220;2023-04-03T12:15:41;9.50;66.60
23411;DHT22;11878;51.774;7.220;2023-04-03T12:29:46;10.80;70.30
23411;DHT22;11878;51.774;7.220;2023-04-03T12:51:39;10.40;64.30
23411;DHT22;11878;51.774;7.220;2023-04-03T12:58:20;10.80;67.60
23411;DHT22;11878;51.774;7.220;2023-04-03T13:22:33;12.10;63.40
23411;DHT22;11878;51.774;7.220;2023-04-03T13:25:41;12.10;63.40
23411;DHT22;11878;51.774;7.220;2023-04-03T13:28:45;13.50;61.00
23411;DHT22;11878;51.774;7.220;2023-04-03T13:31:53;14.00;58.70
23411;DHT22;11878;51.774;7.220;2023-04-03T13:34:59;14.30;62.70
23411;DHT22;11878;51.774;7.220;2023-04-03T13:38:23;12.70;62.20
23411;DHT22;11878;51.774;7.220;2023-04-03T13:41:37;15.80;59.50
23411;DHT22;11878;51.774;7.220;2023-04-03T13:44:40;14.90;55.80
23411;DHT22;11878;51.774;7.220;2023-04-03T13:47:45;16.60;54.30
23411;DHT22;11878;51.774;7.220;2023-04-03T13:51:07;14.80;48.90
23411;DHT22;11878;51.774;7.220;2023-04-03T13:54:35;15.20;52.20
23411;DHT22;11878;51.774;7.220;2023-04-03T13:57:59;15.00;53.60
23411;DHT22;11878;51.774;7.220;2023-04-03T14:04:13;16.30;51.40
23411;DHT22;11878;51.774;7.220;2023-04-03T14:07:16;13.80;50.70
23411;DHT22;11878;51.774;7.220;2023-04-03T14:10:23;12.40;55.00
23411;DHT22;11878;51.774;7.220;2023-04-03T14:13:26;13.70;56.00
23411;DHT22;11878;51.774;7.220;2023-04-03T14:42:39;15.50;50.00
23411;DHT22;11878;51.774;7.220;2023-04-03T14:45:47;16.20;45.50
23411;DHT22;11878;51.774;7.220;2023-04-03T14:48:49;16.30;47.10
23411;DHT22;11878;51.774;7.220;2023-04-03T14:51:52;17.30;42.20
23411;DHT22;11878;51.774;7.220;2023-04-03T14:54:54;17.70;48.70
23411;DHT22;11878;51.774;7.220;2023-04-03T14:57:59;18.30;45.70
23411;DHT22;11878;51.774;7.220;2023-04-03T15:01:01;16.00;42.10
23411;DHT22;11878;51.774;7.220;2023-04-03T15:04:19;17.60;39.20
23411;DHT22;11878;51.774;7.220;2023-04-03T15:07:23;17.20;39.90
23411;DHT22;11878;51.774;7.220;2023-04-03T15:10:36;18.90;42.40
23411;DHT22;11878;51.774;7.220;2023-04-03T15:13:38;18.60;40.30
23411;DHT22;11878;51.774;7.220;2023-04-03T15:16:42;17.30;38.80
23411;DHT22;11878;51.774;7.220;2023-04-03T15:19:44;18.30;39.90
23411;DHT22;11878;51.774;7.220;2023-04-03T15:23:03;15.90;42.10
23411;DHT22;11878;51.774;7.220;2023-04-03T15:26:10;16.10;42.70
23411;DHT22;11878;51.774;7.220;2023-04-03T15:29:13;17.00;40.10
23411;DHT22;11878;51.774;7.220;2023-04-03T15:32:15;16.90;40.00
23411;DHT22;11878;51.774;7.220;2023-04-03T15:35:18;17.30;42.40
23411;DHT22;11878;51.774;7.220;2023-04-03T15:38:20;17.10;39.80
23411;DHT22;11878;51.774;7.220;2023-04-03T15:41:25;16.70;36.50
23411;DHT22;11878;51.774;7.220;2023-04-03T15:44:33;15.60;36.40
23411;DHT22;11878;51.774;7.220;2023-04-03T15:47:41;17.10;38.30
23411;DHT22;11878;51.774;7.220;2023-04-03T15:50:45;16.50;40.40
23411;DHT22;11878;51.774;7.220;2023-04-03T15:54:07;16.60;42.20
23411;DHT22;11878;51.774;7.220;2023-04-03T15:57:09;15.80;39.60
23411;DHT22;11878;51.774;7.220;2023-04-03T16:00:11;17.20;40.90
23411;DHT22;11878;51.774;7.220;2023-04-03T16:03:20;16.90;37.50
23411;DHT22;11878;51.774;7.220;2023-04-03T16:06:25;19.30;39.20
23411;DHT22;11878;51.774;7.220;2023-04-03T16:09:36;16.50;38.40
23411;DHT22;11878;51.774;7.220;2023-04-03T16:12:38;12.00;46.50
23411;DHT22;11878;51.774;7.220;2023-04-03T16:15:41;15.80;47.30
23411;DHT22;11878;51.774;7.220;2023-04-03T16:18:43;12.80;48.30
23411;DHT22;11878;51.774;7.220;2023-04-03T16:21:48;14.00;51.40
23411;DHT22;11878;51.774;7.220;2023-04-03T16:28:14;12.20;51.80
23411;DHT22;11878;51.774;7.220;2023-04-03T16:56:03;9.80;56.90
23411;DHT22;11878;51.774;7.220;2023-04-03T17:13:03;9.70;56.50
23411;DHT22;11878;51.774;7.220;2023-04-03T17:19:36;9.20;62.20
23411;DHT22;11878;51.774;7.220;2023-04-03T17:29:40;9.10;61.00
23411;DHT22;11878;51.774;7.220;2023-04-03T17:43:15;8.90;58.40
23411;DHT22;11878;51.774;7.220;2023-04-03T17:46:17;8.60;61.90
23411;DHT22;11878;51.774;7.220;2023-04-03T17:49:18;8.40;62.40
23411;DHT22;11878;51.774;7.220;2023-04-03T18:02:55;8.00;68.20
23411;DHT22;11878;51.774;7.220;2023-04-03T18:05:56;8.10;67.40
23411;DHT22;11878;51.774;7.220;2023-04-03T18:09:10;7.90;70.50
23411;DHT22;11878;51.774;7.220;2023-04-03T18:23:01;7.70;77.70
23411;DHT22;11878;51.774;7.220;2023-04-03T18:26:03;7.60;77.80
23411;DHT22;11878;51.774;7.220;2023-04-03T18:29:07;7.60;78.90
23411;DHT22;11878;51.774;7.220;2023-04-03T18:32:12;7.40;83.90
23411;DHT22;11878;51.774;7.220;2023-04-03T18:35:14;7.40;88.10
23411;DHT22;11878;51.774;7.220;2023-04-03T18:38:16;7.30;87.30
23411;DHT22;11878;51.774;7.220;2023-04-03T18:41:19;7.20;92.00
23411;DHT22;11878;51.774;7.220;2023-04-03T18:44:23;7.00;90.00
23411;DHT22;11878;51.774;7.220;2023-04-03T18:47:26;7.10;92.90
23411;DHT22;11878;51.774;7.220;2023-04-03T18:50:29;7.00;90.80
23411;DHT22;11878;51.774;7.220;2023-04-03T18:53:31;7.00;91.50
23411;DHT22;11878;51.774;7.220;2023-04-03T18:56:32;7.80;91.50
23411;DHT22;11878;51.774;7.220;2023-04-03T18:59:34;6.90;96.40
23411;DHT22;11878;51.774;7.220;2023-04-03T19:02:36;6.70;94.40
23411;DHT22;11878;51.774;7.220;2023-04-03T19:05:38;6.60;98.70
23411;DHT22;11878;51.774;7.220;2023-04-03T19:08:40;6.60;99.30
23411;DHT22;11878;51.774;7.220;2023-04-03T19:11:42;6.40;98.00
23411;DHT22;11878;51.774;7.220;2023-04-03T19:14:49;6.30;98.60
23411;DHT22;11878;51.774;7.220;2023-04-03T19:21:31;6.00;99.90
23411;DHT22;11878;51.774;7.220;2023-04-03T19:24:33;5.90;99.90
23411;DHT22;11878;51.774;7.220;2023-04-03T19:27:36;5.90;99.00
23411;DHT22;11878;51.774;7.220;2023-04-03T19:30:38;5.90;98.50
23411;DHT22;11878;51.774;7.220;2023-04-03T19:33:40;5.80;99.90
23411;DHT22;11878;51.774;7.220;2023-04-03T19:36:42;5.70;99.20
23411;DHT22;11878;51.774;7.220;2023-04-03T19:39:45;5.70;99.90
23411;DHT22;11878;51.774;7.220;2023-04-03T19:42:47;5.60;99.90
23411;DHT22;11878;51.774;7.220;2023-04-03T19:45:49;5.50;99.90
23411;DHT22;11878;51.774;7.220;2023-04-03T19:48:51;5.40;99.90
23411;DHT22;11878;51.774;7.220;2023-04-03T19:51:53;5.40;99.90
23411;DHT22;11878;51.774;7.220;2023-04-03T19:54:55;5.30;99.90
23411;DHT22;11878;51.774;7.220;2023-04-03T20:05:05;4.90;99.90
23411;DHT22;11878;51.774;7.220;2023-04-03T20:08:07;4.90;99.90
23411;DHT22;11878;51.774;7.220;2023-04-03T20:11:09;4.80;99.90
23411;DHT22;11878;51.774;7.220;2023-04-03T20:17:42;4.70;99.90
23411;DHT22;11878;51.774;7.220;2023-04-03T20:20:56;4.80;99.90
23411;DHT22;11878;51.774;7.220;2023-04-03T20:24:00;4.60;99.90
23411;DHT22;11878;51.774;7.220;2023-04-03T20:27:02;4.60;99.90
23411;DHT22;11878;51.774;7.220;2023-04-03T20:30:05;4.40;99.90
23411;DHT22;11878;51.774;7.220;2023-04-03T20:33:09;4.30;99.90
23411;DHT22;11878;51.774;7.220;2023-04-03T20:36:11;4.30;99.90
23411;DHT22;11878;51.774;7.220;2023-04-03T20:39:13;4.30;99.90
23411;DHT22;11878;51.774;7.220;2023-04-03T20:42:15;4.20;99.90
23411;DHT22;11878;51.774;7.220;2023-04-03T20:45:17;4.00;99.90
23411;DHT22;11878;51.774;7.220;2023-04-03T20:48:21;3.90;99.90
23411;DHT22;11878;51.774;7.220;2023-04-03T20:51:24;3.90;99.90
23411;DHT22;11878;51.774;7.220;2023-04-03T20:54:27;3.70;99.90
23411;DHT22;11878;51.774;7.220;2023-04-03T21:01:20;3.50;99.90
23411;DHT22;11878;51.774;7.220;2023-04-03T21:04:31;3.50;99.90
23411;DHT22;11878;51.774;7.220;2023-04-03T21:21:33;3.30;99.90
23411;DHT22;11878;51.774;7.220;2023-04-03T21:24:37;3.20;99.90
23411;DHT22;11878;51.774;7.220;2023-04-03T21:27:39;3.20;99.90
23411;DHT22;11878;51.774;7.220;2023-04-03T21:30:41;3.10;99.90
23411;DHT22;11878;51.774;7.220;2023-04-03T21:33:43;3.10;99.90
23411;DHT22;11878;51.774;7.220;2023-04-03T21:36:45;3.10;99.90
23411;DHT22;11878;51.774;7.220;2023-04-03T21:39:50;3.00;99.90
23411;DHT22;11878;51.774;7.220;2023-04-03T21:42:54;3.10;99.90
23411;DHT22;11878;51.774;7.220;2023-04-03T21:45:57;3.10;99.90
23411;DHT22;11878;51.774;7.220;2023-04-03T21:49:00;3.00;99.90
23411;DHT22;11878;51.774;7.220;2023-04-03T21:52:01;2.90;99.90
23411;DHT22;11878;51.774;7.220;2023-04-03T21:55:03;2.80;99.90
23411;DHT22;11878;51.774;7.220;2023-04-03T21:58:05;2.80;99.90
23411;DHT22;11878;51.774;7.220;2023-04-03T22:01:11;2.70;99.90
23411;DHT22;11878;51.774;7.220;2023-04-03T22:04:14;2.70;99.90
23411;DHT22;11878;51.774;7.220;2023-04-03T22:07:17;2.70;99.90
23411;DHT22;11878;51.774;7.220;2023-04-03T22:10:18;2.60;99.90
23411;DHT22;11878;51.774;7.220;2023-04-03T22:13:20;2.60;99.90
23411;DHT22;11878;51.774;7.220;2023-04-03T22:16:22;2.70;99.90
23411;DHT22;11878;51.774;7.220;2023-04-03T22:19:24;2.70;99.90
23411;DHT22;11878;51.774;7.220;2023-04-03T22:22:26;2.70;99.90
23411;DHT22;11878;51.774;7.220;2023-04-03T22:25:28;2.60;99.90
23411;DHT22;11878;51.774;7.220;2023-04-03T22:28:31;2.60;99.90
23411;DHT22;11878;51.774;7.220;2023-04-03T22:31:33;2.50;99.90
23411;DHT22;11878;51.774;7.220;2023-04-03T22:34:37;2.40;99.90
23411;DHT22;11878;51.774;7.220;2023-04-03T22:37:40;2.40;99.90
23411;DHT22;11878;51.774;7.220;2023-04-03T22:40:43;2.30;99.90
23411;DHT22;11878;51.774;7.220;2023-04-03T22:43:45;2.10;99.90
23411;DHT22;11878;51.774;7.220;2023-04-03T22:46:47;2.20;99.90
23411;DHT22;11878;51.774;7.220;2023-04-03T22:49:49;2.20;99.90
23411;DHT22;11878;51.774;7.220;2023-04-03T22:52:51;2.00;99.90
23411;DHT22;11878;51.774;7.220;2023-04-03T22:58:55;1.90;99.90
23411;DHT22;11878;51.774;7.220;2023-04-03T23:01:57;1.80;99.90
23411;DHT22;11878;51.774;7.220;2023-04-03T23:04:59;1.80;99.90
23411;DHT22;11878;51.774;7.220;2023-04-03T23:08:00;1.80;99.90
23411;DHT22;11878;51.774;7.220;2023-04-03T23:11:03;1.90;99.90
23411;DHT22;11878;51.774;7.220;2023-04-03T23:14:05;1.90;99.90
23411;DHT22;11878;51.774;7.220;2023-04-03T23:17:06;1.80;99.90
23411;DHT22;11878;51.774;7.220;2023-04-03T23:20:08;1.60;99.90
23411;DHT22;11878;51.774;7.220;2023-04-03T23:30:26;1.60;99.90
23411;DHT22;11878;51.774;7.220;2023-04-03T23:33:28;1.50;99.90
23411;DHT22;11878;51.774;7.220;2023-04-03T23:36:31;1.50;99.90
23411;DHT22;11878;51.774;7.220;2023-04-03T23:39:33;1.60;99.90
23411;DHT22;11878;51.774;7.220;2023-04-03T23:42:34;1.60;99.90
23411;DHT22;11878;51.774;7.220;2023-04-03T23:45:36;1.60;99.90
23411;DHT22;11878;51.774;7.220;2023-04-03T23:48:38;1.50;99.90
23411;DHT22;11878;51.774;7.220;2023-04-03T23:51:40;1.50;99.90
23411;DHT22;11878;51.774;7.220;2023-04-03T23:54:41;1.40;99.90
23411;DHT22;11878;51.774;7.220;2023-04-03T23:57:43;1.40;99.90
